Time;durP1;ratioP1;P1;durP2;ratioP2;P2;SDS_P1;SDS_P2;PMS_P1;PMS_P2;Temp;Humidity;BMP_temperature;BMP_pressure;BME280_temperature;BME280_humidity;BME280_pressure;Samples;Min_cycle;Max_cycle;Signal;HPM_P1;HPM_P2
2022/01/14 00:01:16;;;;;;;;;;;5.00;99.90;;;;;;6160281;23;19901;-70
2022/01/14 00:03:42;;;;;;;;;;;5.00;99.90;;;;;;6159640;23;19903;-71
2022/01/14 00:06:08;;;;;;;;;;;4.90;99.90;;;;;;6158790;23;20084;-69
2022/01/14 00:08:34;;;;;;;;;;;4.90;99.90;;;;;;6158395;23;19948;-72
2022/01/14 00:11:03;;;;;;;;;;;5.00;99.90;;;;;;6159494;23;19911;-70
2022/01/14 00:14:24;;;;;;;;;;;5.00;99.90;;;;;;6158573;23;20175;-70
2022/01/14 00:16:19;;;;;;;;;;;5.00;99.90;;;;;;6152545;23;19928;-70
2022/01/14 00:18:46;;;;;;;;;;;5.10;99.90;;;;;;6161075;23;19903;-71
2022/01/14 00:21:12;;;;;;;;;;;5.10;99.90;;;;;;6135791;23;19908;-70
2022/01/14 00:23:40;;;;;;;;;;;5.00;99.90;;;;;;6132079;23;20068;-69
2022/01/14 00:31:56;;;;;;;;;;;5.00;99.90;;;;;;6132476;23;19935;-70
2022/01/14 00:34:22;;;;;;;;;;;5.00;99.90;;;;;;6132147;23;20183;-71
2022/01/14 00:36:47;;;;;;;;;;;5.10;99.90;;;;;;6106030;23;19908;-70
2022/01/14 00:39:14;;;;;;;;;;;5.10;99.90;;;;;;6132301;23;19897;-71
2022/01/14 00:41:40;;;;;;;;;;;5.10;99.90;;;;;;6131391;23;19896;-70
2022/01/14 00:44:10;;;;;;;;;;;5.20;99.90;;;;;;6132470;23;19904;-71
2022/01/14 00:46:40;;;;;;;;;;;5.10;99.90;;;;;;6132163;23;19948;-71
2022/01/14 00:49:25;;;;;;;;;;;5.10;99.90;;;;;;6106478;23;19897;-70
2022/01/14 00:51:50;;;;;;;;;;;5.10;99.90;;;;;;6131300;23;19911;-70
2022/01/14 00:54:17;;;;;;;;;;;5.10;99.90;;;;;;6106268;23;20088;-69
2022/01/14 00:59:15;;;;;;;;;;;5.10;99.90;;;;;;6132631;23;19924;-70
2022/01/14 01:01:45;;;;;;;;;;;5.10;99.90;;;;;;6105418;23;19925;-69
2022/01/14 01:04:11;;;;;;;;;;;5.20;99.90;;;;;;6131644;23;19901;-69
2022/01/14 01:06:37;;;;;;;;;;;5.20;99.90;;;;;;6130764;23;19919;-69
2022/01/14 01:09:07;;;;;;;;;;;5.20;99.90;;;;;;6131629;23;20176;-71
2022/01/14 01:11:36;;;;;;;;;;;5.20;99.90;;;;;;6131462;23;19964;-69
2022/01/14 01:14:15;;;;;;;;;;;5.20;99.90;;;;;;6130802;23;19914;-69
2022/01/14 01:16:41;;;;;;;;;;;5.20;99.90;;;;;;6130414;23;19896;-69
2022/01/14 01:19:07;;;;;;;;;;;5.20;99.90;;;;;;6131173;23;20120;-69
2022/01/14 01:21:33;;;;;;;;;;;5.10;99.90;;;;;;6105158;23;19940;-68
2022/01/14 01:23:59;;;;;;;;;;;5.10;99.90;;;;;;6130258;23;19896;-67
2022/01/14 01:26:36;;;;;;;;;;;5.10;99.90;;;;;;6130883;23;19904;-68
2022/01/14 01:29:30;;;;;;;;;;;5.10;99.90;;;;;;6130138;23;19905;-68
2022/01/14 01:31:51;;;;;;;;;;;5.10;99.90;;;;;;6129994;23;19912;-68
2022/01/14 01:34:18;;;;;;;;;;;5.10;99.90;;;;;;6131383;23;20073;-69
2022/01/14 01:36:45;;;;;;;;;;;5.10;99.90;;;;;;6130631;23;19904;-69
2022/01/14 01:39:15;;;;;;;;;;;5.10;99.90;;;;;;6104929;23;19897;-69
2022/01/14 01:41:45;;;;;;;;;;;5.20;99.90;;;;;;6104468;23;20112;-68
2022/01/14 01:44:11;;;;;;;;;;;5.30;99.90;;;;;;6131007;23;19897;-69
2022/01/14 01:46:40;;;;;;;;;;;5.40;99.90;;;;;;6130824;23;19917;-68
2022/01/14 01:49:06;;;;;;;;;;;5.40;99.90;;;;;;6130828;23;20235;-69
2022/01/14 01:51:32;;;;;;;;;;;5.40;99.90;;;;;;6130843;23;19960;-68
2022/01/14 01:53:57;;;;;;;;;;;5.50;99.90;;;;;;6130040;23;19897;-68
2022/01/14 01:56:23;;;;;;;;;;;5.60;99.90;;;;;;6131035;23;20080;-69
2022/01/14 01:58:49;;;;;;;;;;;5.50;99.90;;;;;;6130280;23;20081;-68
2022/01/14 02:01:14;;;;;;;;;;;5.50;99.90;;;;;;6105134;23;19896;-67
2022/01/14 02:03:40;;;;;;;;;;;5.50;99.90;;;;;;6130487;23;19897;-69
2022/01/14 02:06:06;;;;;;;;;;;5.50;99.90;;;;;;6104889;23;19920;-70
2022/01/14 02:08:31;;;;;;;;;;;5.40;99.90;;;;;;6130983;23;19901;-70
2022/01/14 02:10:58;;;;;;;;;;;5.40;99.90;;;;;;6130076;23;19920;-70
2022/01/14 02:13:23;;;;;;;;;;;5.40;99.90;;;;;;6104872;23;19940;-70
2022/01/14 02:16:11;;;;;;;;;;;5.40;99.90;;;;;;6130028;23;19949;-70
2022/01/14 02:18:49;;;;;;;;;;;5.40;99.90;;;;;;6130478;23;19924;-70
2022/01/14 02:26:47;;;;;;;;;;;5.40;99.90;;;;;;6169724;23;19903;-67
2022/01/14 02:29:13;;;;;;;;;;;5.30;99.90;;;;;;6158514;23;19927;-68
2022/01/14 02:31:38;;;;;;;;;;;5.30;99.90;;;;;;6159684;23;19904;-68
2022/01/14 02:34:04;;;;;;;;;;;5.30;99.90;;;;;;6159929;23;20064;-69
2022/01/14 02:36:30;;;;;;;;;;;5.40;99.90;;;;;;6158753;23;19947;-69
2022/01/14 02:38:56;;;;;;;;;;;5.30;99.90;;;;;;6159529;23;19896;-70
2022/01/14 02:41:21;;;;;;;;;;;5.30;99.90;;;;;;6159930;23;19951;-70
2022/01/14 02:43:47;;;;;;;;;;;5.40;99.90;;;;;;6159569;23;19905;-72
2022/01/14 02:46:15;;;;;;;;;;;5.30;99.90;;;;;;6159897;23;19896;-70
2022/01/14 02:48:40;;;;;;;;;;;5.20;99.90;;;;;;6159620;23;19896;-69
2022/01/14 02:51:12;;;;;;;;;;;5.20;99.90;;;;;;6158270;23;20184;-70
2022/01/14 02:56:06;;;;;;;;;;;5.20;99.90;;;;;;6160264;23;19904;-70
2022/01/14 02:58:32;;;;;;;;;;;5.20;99.90;;;;;;6159935;23;20215;-70
2022/01/14 03:00:59;;;;;;;;;;;5.10;99.90;;;;;;6157963;23;20186;-69
2022/01/14 03:03:25;;;;;;;;;;;5.10;99.90;;;;;;6159760;23;19919;-69
2022/01/14 03:05:51;;;;;;;;;;;5.20;99.90;;;;;;6159234;23;20176;-68
2022/01/14 03:08:20;;;;;;;;;;;5.30;99.90;;;;;;6160313;23;19896;-69
2022/01/14 03:10:48;;;;;;;;;;;5.30;99.90;;;;;;6159384;23;19959;-69
2022/01/14 03:13:33;;;;;;;;;;;5.30;99.90;;;;;;6158715;23;20175;-69
2022/01/14 03:15:59;;;;;;;;;;;5.20;99.90;;;;;;6157461;23;20028;-68
2022/01/14 03:18:45;;;;;;;;;;;5.30;99.90;;;;;;6159820;23;19903;-69
2022/01/14 03:21:12;;;;;;;;;;;5.30;99.90;;;;;;6133557;23;20256;-69
2022/01/14 03:23:46;;;;;;;;;;;5.30;99.90;;;;;;6130346;23;19897;-70
2022/01/14 03:26:15;;;;;;;;;;;5.20;99.90;;;;;;6130084;23;19897;-70
2022/01/14 03:28:41;;;;;;;;;;;5.20;99.90;;;;;;6129591;23;19924;-69
2022/01/14 03:31:07;;;;;;;;;;;5.20;99.90;;;;;;6129888;23;19920;-69
2022/01/14 03:33:34;;;;;;;;;;;5.20;99.90;;;;;;6130252;23;19932;-70
2022/01/14 03:35:59;;;;;;;;;;;5.30;99.90;;;;;;6129057;23;19896;-70
2022/01/14 03:38:25;;;;;;;;;;;5.30;99.90;;;;;;6104402;23;19897;-70
2022/01/14 03:40:51;;;;;;;;;;;5.20;99.90;;;;;;6129178;23;19999;-70
2022/01/14 03:43:16;;;;;;;;;;;5.10;99.90;;;;;;6104067;23;19925;-68
2022/01/14 03:45:42;;;;;;;;;;;5.20;99.90;;;;;;6103149;23;19897;-68
2022/01/14 03:48:08;;;;;;;;;;;5.10;99.90;;;;;;6104247;23;19955;-68
2022/01/14 03:50:36;;;;;;;;;;;5.10;99.90;;;;;;6129688;23;19896;-69
2022/01/14 03:53:02;;;;;;;;;;;5.10;99.90;;;;;;6103938;23;20150;-69
2022/01/14 03:55:28;;;;;;;;;;;5.10;99.90;;;;;;6132012;23;20092;-69
2022/01/14 03:57:53;;;;;;;;;;;5.20;99.90;;;;;;6131320;23;20069;-69
2022/01/14 04:00:19;;;;;;;;;;;5.20;99.90;;;;;;6105929;23;20023;-68
2022/01/14 04:02:45;;;;;;;;;;;5.20;99.90;;;;;;6131241;23;19897;-69
2022/01/14 04:05:11;;;;;;;;;;;5.30;99.90;;;;;;6105911;23;20147;-69
2022/01/14 04:07:36;;;;;;;;;;;5.30;99.90;;;;;;6131785;23;19896;-67
2022/01/14 04:10:03;;;;;;;;;;;5.20;99.90;;;;;;6105041;23;20158;-68
2022/01/14 04:12:52;;;;;;;;;;;5.20;99.90;;;;;;6131523;23;19911;-68
2022/01/14 04:15:37;;;;;;;;;;;5.20;99.90;;;;;;6131457;23;20180;-69
2022/01/14 04:18:07;;;;;;;;;;;5.10;99.90;;;;;;6105310;23;19972;-69
2022/01/14 04:20:33;;;;;;;;;;;5.20;99.90;;;;;;6136925;23;19983;-70
2022/01/14 04:22:59;;;;;;;;;;;5.10;99.90;;;;;;6160793;23;19897;-69
2022/01/14 04:25:24;;;;;;;;;;;5.10;99.90;;;;;;6159912;23;19897;-69
2022/01/14 04:27:50;;;;;;;;;;;5.00;99.90;;;;;;6159139;23;19944;-69
2022/01/14 04:30:16;;;;;;;;;;;5.00;99.90;;;;;;6159817;23;20118;-67
2022/01/14 04:32:42;;;;;;;;;;;4.90;99.90;;;;;;6160886;23;19960;-68
2022/01/14 04:35:08;;;;;;;;;;;4.90;99.90;;;;;;6161308;23;20106;-68
2022/01/14 04:37:34;;;;;;;;;;;4.90;99.90;;;;;;6161257;23;20092;-68
2022/01/14 04:39:59;;;;;;;;;;;4.90;99.90;;;;;;6159050;23;19897;-68
2022/01/14 04:42:26;;;;;;;;;;;4.90;99.90;;;;;;6161302;23;19896;-68
2022/01/14 04:44:54;;;;;;;;;;;4.90;99.90;;;;;;6158837;23;19915;-68
2022/01/14 04:47:33;;;;;;;;;;;5.00;99.90;;;;;;6160930;23;19896;-68
2022/01/14 04:49:59;;;;;;;;;;;5.00;99.90;;;;;;6158778;23;19896;-68
2022/01/14 04:52:26;;;;;;;;;;;5.00;99.90;;;;;;6159896;23;19904;-68
2022/01/14 04:54:51;;;;;;;;;;;5.10;99.90;;;;;;6160378;23;19896;-68
2022/01/14 04:57:17;;;;;;;;;;;5.10;99.90;;;;;;6161348;23;19920;-69
2022/01/14 04:59:46;;;;;;;;;;;5.10;99.90;;;;;;6158823;23;20230;-68
2022/01/14 05:02:12;;;;;;;;;;;5.10;99.90;;;;;;6161177;23;19902;-67
2022/01/14 05:04:39;;;;;;;;;;;5.10;99.90;;;;;;6160621;23;19896;-67
2022/01/14 05:07:04;;;;;;;;;;;5.10;99.90;;;;;;6159195;23;19904;-67
2022/01/14 05:09:37;;;;;;;;;;;5.10;99.90;;;;;;6161169;23;20172;-67
2022/01/14 05:12:09;;;;;;;;;;;5.10;99.90;;;;;;6160406;23;19947;-67
2022/01/14 05:14:34;;;;;;;;;;;5.20;99.90;;;;;;6161235;23;19939;-70
2022/01/14 05:17:00;;;;;;;;;;;5.30;99.90;;;;;;6160453;23;19897;-68
2022/01/14 05:19:26;;;;;;;;;;;5.30;99.90;;;;;;6156269;23;20116;-70
2022/01/14 05:21:52;;;;;;;;;;;5.30;99.90;;;;;;6130712;23;19901;-68
2022/01/14 05:24:17;;;;;;;;;;;5.40;99.90;;;;;;6105688;23;19897;-69
2022/01/14 05:26:43;;;;;;;;;;;5.40;99.90;;;;;;6104652;23;19904;-68
2022/01/14 05:29:08;;;;;;;;;;;5.50;99.90;;;;;;6131678;23;19897;-69
2022/01/14 05:31:51;;;;;;;;;;;5.50;99.90;;;;;;6131854;23;19915;-69
2022/01/14 05:34:17;;;;;;;;;;;5.50;99.90;;;;;;6131407;23;19904;-69
2022/01/14 05:36:43;;;;;;;;;;;5.50;99.90;;;;;;6104621;23;19901;-69
2022/01/14 05:39:09;;;;;;;;;;;5.40;99.90;;;;;;6105217;23;19972;-69
2022/01/14 05:41:35;;;;;;;;;;;5.50;99.90;;;;;;6131565;23;19897;-68
2022/01/14 05:44:01;;;;;;;;;;;5.50;99.90;;;;;;6130153;23;20305;-69
2022/01/14 05:46:27;;;;;;;;;;;5.50;99.90;;;;;;6105389;23;19897;-68
2022/01/14 05:48:53;;;;;;;;;;;5.40;99.90;;;;;;6130474;23;19897;-69
2022/01/14 05:51:18;;;;;;;;;;;5.40;99.90;;;;;;6105203;23;19924;-69
2022/01/14 05:53:44;;;;;;;;;;;5.40;99.90;;;;;;6130166;23;19903;-68
2022/01/14 05:56:09;;;;;;;;;;;5.50;99.90;;;;;;6131120;23;19897;-68
2022/01/14 05:58:35;;;;;;;;;;;5.50;99.90;;;;;;6105367;23;19897;-68
2022/01/14 06:01:00;;;;;;;;;;;5.40;99.90;;;;;;6104229;23;19947;-69
2022/01/14 06:03:26;;;;;;;;;;;5.40;99.90;;;;;;6105183;23;19920;-68
2022/01/14 06:05:51;;;;;;;;;;;5.40;99.90;;;;;;6129947;23;20168;-69
2022/01/14 06:08:17;;;;;;;;;;;5.40;99.90;;;;;;6130547;23;19900;-68
2022/01/14 06:10:43;;;;;;;;;;;5.40;99.90;;;;;;6130000;23;20207;-68
2022/01/14 06:13:08;;;;;;;;;;;5.30;99.90;;;;;;6104818;23;20216;-71
2022/01/14 06:15:34;;;;;;;;;;;5.40;99.90;;;;;;6104679;23;19897;-68
2022/01/14 06:18:01;;;;;;;;;;;5.40;99.90;;;;;;6130019;23;20014;-69
2022/01/14 06:20:27;;;;;;;;;;;5.40;99.90;;;;;;6130775;23;19948;-76
2022/01/14 06:22:53;;;;;;;;;;;5.40;99.90;;;;;;6104629;23;19897;-69
2022/01/14 06:25:18;;;;;;;;;;;5.40;99.90;;;;;;6104161;23;19896;-67
2022/01/14 06:27:44;;;;;;;;;;;5.50;99.90;;;;;;6130267;23;19903;-68
2022/01/14 06:30:10;;;;;;;;;;;5.40;99.90;;;;;;6129478;23;19897;-76
2022/01/14 06:32:41;;;;;;;;;;;5.50;99.90;;;;;;6104668;23;19908;-70
2022/01/14 06:35:16;;;;;;;;;;;5.40;99.90;;;;;;6104040;23;19904;-70
2022/01/14 06:37:42;;;;;;;;;;;5.30;99.90;;;;;;6104078;23;19897;-68
2022/01/14 06:40:08;;;;;;;;;;;5.30;99.90;;;;;;6129748;23;19919;-68
2022/01/14 06:42:34;;;;;;;;;;;5.30;99.90;;;;;;6103730;23;19944;-68
2022/01/14 06:44:59;;;;;;;;;;;5.40;99.90;;;;;;6127447;23;19904;-68
2022/01/14 06:47:25;;;;;;;;;;;5.50;99.90;;;;;;6103776;23;20120;-69
2022/01/14 06:49:51;;;;;;;;;;;5.50;99.90;;;;;;6127874;23;20083;-70
2022/01/14 06:52:17;;;;;;;;;;;5.50;99.90;;;;;;6101983;23;20053;-68
2022/01/14 06:54:43;;;;;;;;;;;5.50;99.90;;;;;;6128970;23;19908;-68
2022/01/14 06:57:08;;;;;;;;;;;5.40;99.90;;;;;;6129717;23;19897;-68
2022/01/14 06:59:34;;;;;;;;;;;5.40;99.90;;;;;;6130171;23;19912;-68
2022/01/14 07:02:00;;;;;;;;;;;5.40;99.90;;;;;;6103472;23;20064;-68
2022/01/14 07:04:26;;;;;;;;;;;5.30;99.90;;;;;;6129189;23;19904;-69
2022/01/14 07:06:51;;;;;;;;;;;5.40;99.90;;;;;;6102102;23;19907;-68
2022/01/14 07:09:17;;;;;;;;;;;5.40;99.90;;;;;;6102186;23;19903;-69
2022/01/14 07:11:47;;;;;;;;;;;5.30;99.90;;;;;;6103527;23;20000;-68
2022/01/14 07:14:13;;;;;;;;;;;5.30;99.90;;;;;;6130039;23;19901;-68
2022/01/14 07:16:38;;;;;;;;;;;5.30;99.90;;;;;;6129974;23;19904;-68
2022/01/14 07:19:04;;;;;;;;;;;5.40;99.90;;;;;;6129198;23;19948;-67
2022/01/14 07:21:30;;;;;;;;;;;5.40;99.90;;;;;;6130144;23;19900;-68
2022/01/14 07:23:55;;;;;;;;;;;5.40;99.90;;;;;;6104053;23;19975;-68
2022/01/14 07:26:21;;;;;;;;;;;5.40;99.90;;;;;;6104501;23;19974;-70
2022/01/14 07:28:47;;;;;;;;;;;5.40;99.90;;;;;;6105383;23;19903;-66
2022/01/14 07:31:12;;;;;;;;;;;5.50;99.90;;;;;;6105726;23;19928;-68
2022/01/14 07:33:38;;;;;;;;;;;5.60;99.90;;;;;;6132384;23;19905;-69
2022/01/14 07:36:04;;;;;;;;;;;5.70;99.90;;;;;;6131662;23;19952;-70
2022/01/14 07:38:29;;;;;;;;;;;5.70;99.90;;;;;;6106510;23;19944;-69
2022/01/14 07:40:55;;;;;;;;;;;5.70;99.90;;;;;;6131247;23;19897;-76
2022/01/14 07:43:21;;;;;;;;;;;5.70;99.90;;;;;;6132228;23;19897;-67
2022/01/14 07:45:47;;;;;;;;;;;5.80;99.90;;;;;;6132129;23;19904;-68
2022/01/14 07:48:13;;;;;;;;;;;5.80;99.90;;;;;;6106633;23;19904;-68
2022/01/14 07:50:39;;;;;;;;;;;5.80;99.90;;;;;;6132364;23;19993;-68
2022/01/14 07:53:04;;;;;;;;;;;5.70;99.90;;;;;;6132187;23;19944;-68
2022/01/14 07:55:30;;;;;;;;;;;5.70;99.90;;;;;;6132112;23;19928;-68
2022/01/14 07:57:55;;;;;;;;;;;5.80;99.90;;;;;;6106201;23;20227;-67
2022/01/14 08:00:21;;;;;;;;;;;5.80;99.90;;;;;;6132416;23;19897;-68
2022/01/14 08:02:46;;;;;;;;;;;5.80;99.90;;;;;;6103784;23;19897;-68
2022/01/14 08:05:14;;;;;;;;;;;5.80;99.90;;;;;;6104348;23;19897;-68
2022/01/14 08:07:45;;;;;;;;;;;5.80;99.90;;;;;;6132606;23;20176;-67
2022/01/14 08:10:11;;;;;;;;;;;5.80;99.90;;;;;;6129657;23;19920;-68
2022/01/14 08:12:37;;;;;;;;;;;5.70;99.90;;;;;;6106826;23;19965;-68
2022/01/14 08:15:04;;;;;;;;;;;5.80;99.90;;;;;;6130995;23;19896;-67
2022/01/14 08:17:31;;;;;;;;;;;5.80;99.90;;;;;;6105690;23;19901;-68
2022/01/14 08:19:56;;;;;;;;;;;5.80;99.90;;;;;;6125668;23;19908;-68
2022/01/14 08:22:22;;;;;;;;;;;5.90;99.90;;;;;;6161788;23;19897;-68
2022/01/14 08:24:48;;;;;;;;;;;5.90;99.90;;;;;;6161042;23;20292;-69
2022/01/14 08:27:13;;;;;;;;;;;6.00;99.90;;;;;;6160054;23;19907;-68
2022/01/14 08:29:39;;;;;;;;;;;5.90;99.90;;;;;;6160931;23;19943;-68
2022/01/14 08:32:05;;;;;;;;;;;5.90;99.90;;;;;;6160011;23;19920;-68
2022/01/14 08:34:31;;;;;;;;;;;5.90;99.90;;;;;;6159650;23;20090;-68
2022/01/14 08:36:57;;;;;;;;;;;5.90;99.90;;;;;;6159125;23;20307;-69
2022/01/14 08:39:22;;;;;;;;;;;6.00;99.90;;;;;;6160554;23;20119;-68
2022/01/14 08:41:48;;;;;;;;;;;6.00;99.90;;;;;;6160256;23;20133;-68
2022/01/14 08:44:14;;;;;;;;;;;6.00;99.90;;;;;;6159349;23;20184;-68
2022/01/14 08:46:40;;;;;;;;;;;6.00;99.90;;;;;;6160298;23;19896;-69
2022/01/14 08:49:06;;;;;;;;;;;6.10;99.90;;;;;;6159191;23;19897;-69
2022/01/14 08:51:32;;;;;;;;;;;6.10;99.90;;;;;;6160406;23;19928;-68
2022/01/14 08:54:02;;;;;;;;;;;6.10;99.90;;;;;;6160497;23;19981;-68
2022/01/14 08:56:28;;;;;;;;;;;6.10;99.90;;;;;;6160881;23;20308;-68
2022/01/14 08:58:53;;;;;;;;;;;6.10;99.90;;;;;;6158097;23;19917;-68
2022/01/14 09:01:19;;;;;;;;;;;6.20;99.90;;;;;;6160631;23;19920;-69
2022/01/14 09:03:44;;;;;;;;;;;6.20;99.90;;;;;;6160724;23;19896;-69
2022/01/14 09:06:10;;;;;;;;;;;6.30;99.90;;;;;;6160919;23;19949;-68
2022/01/14 09:08:54;;;;;;;;;;;6.20;99.90;;;;;;6158665;23;19896;-69
2022/01/14 09:11:20;;;;;;;;;;;6.20;99.90;;;;;;6159803;23;20207;-69
2022/01/14 09:13:46;;;;;;;;;;;6.20;99.90;;;;;;6160011;23;19897;-69
2022/01/14 09:16:11;;;;;;;;;;;6.30;99.90;;;;;;6159028;23;19903;-69
2022/01/14 09:18:37;;;;;;;;;;;6.30;99.90;;;;;;6160047;23;19940;-68
2022/01/14 09:21:04;;;;;;;;;;;6.40;99.90;;;;;;6135852;23;20184;-69
2022/01/14 09:23:29;;;;;;;;;;;6.40;99.90;;;;;;6130649;23;20115;-68
2022/01/14 09:25:55;;;;;;;;;;;6.30;99.90;;;;;;6104289;23;20180;-68
2022/01/14 09:28:21;;;;;;;;;;;6.40;99.90;;;;;;6104871;23;19896;-68
2022/01/14 09:30:47;;;;;;;;;;;6.40;99.90;;;;;;6104048;23;19912;-68
2022/01/14 09:33:14;;;;;;;;;;;6.50;99.90;;;;;;6104534;23;20221;-67
2022/01/14 09:35:40;;;;;;;;;;;6.60;99.90;;;;;;6129932;23;19904;-67
2022/01/14 09:38:06;;;;;;;;;;;6.80;99.90;;;;;;6129102;23;20355;-68
2022/01/14 09:40:32;;;;;;;;;;;6.80;99.90;;;;;;6130403;23;19897;-68
2022/01/14 09:43:00;;;;;;;;;;;6.70;99.90;;;;;;6104582;23;19951;-69
2022/01/14 09:45:28;;;;;;;;;;;6.70;99.90;;;;;;6101661;23;19897;-69
2022/01/14 09:47:54;;;;;;;;;;;6.80;99.90;;;;;;6130061;23;19944;-68
2022/01/14 09:50:19;;;;;;;;;;;6.80;99.90;;;;;;6105231;23;19897;-69
2022/01/14 09:52:47;;;;;;;;;;;6.90;99.90;;;;;;6130781;23;19911;-68
2022/01/14 09:55:12;;;;;;;;;;;7.00;99.90;;;;;;6131257;23;19964;-70
2022/01/14 09:57:38;;;;;;;;;;;7.00;99.90;;;;;;6130148;23;20077;-68
2022/01/14 10:00:07;;;;;;;;;;;7.00;99.90;;;;;;6104933;23;19963;-69
2022/01/14 10:02:35;;;;;;;;;;;7.00;99.90;;;;;;6130465;23;19897;-69
2022/01/14 10:05:01;;;;;;;;;;;7.00;99.90;;;;;;6104236;23;19897;-69
2022/01/14 10:07:27;;;;;;;;;;;7.10;99.90;;;;;;6104752;23;19897;-69
2022/01/14 10:10:00;;;;;;;;;;;7.20;99.90;;;;;;6103851;23;19977;-69
2022/01/14 10:12:30;;;;;;;;;;;7.10;99.90;;;;;;6130466;23;20143;-69
2022/01/14 10:14:58;;;;;;;;;;;7.10;99.90;;;;;;6130041;23;19897;-69
2022/01/14 10:17:25;;;;;;;;;;;7.10;99.90;;;;;;6130041;23;19897;-69
2022/01/14 10:19:51;;;;;;;;;;;7.10;99.90;;;;;;6117883;23;20105;-74
2022/01/14 10:22:26;;;;;;;;;;;7.10;99.90;;;;;;6160478;23;19896;-72
2022/01/14 10:24:56;;;;;;;;;;;7.00;99.90;;;;;;6159327;23;19952;-71
2022/01/14 10:27:38;;;;;;;;;;;7.10;99.90;;;;;;6159955;23;20357;-71
2022/01/14 10:30:15;;;;;;;;;;;7.20;99.90;;;;;;6159474;23;19916;-71
2022/01/14 10:32:42;;;;;;;;;;;7.20;99.90;;;;;;6157452;23;19932;-71
2022/01/14 10:35:08;;;;;;;;;;;7.20;99.90;;;;;;6158512;23;20231;-71
2022/01/14 10:37:34;;;;;;;;;;;7.30;99.90;;;;;;6158562;23;19897;-71
2022/01/14 10:40:00;;;;;;;;;;;7.30;99.90;;;;;;6157433;23;19962;-71
2022/01/14 10:42:36;;;;;;;;;;;7.30;99.90;;;;;;6158548;23;20083;-71
2022/01/14 10:45:15;;;;;;;;;;;7.20;99.90;;;;;;6157617;23;19897;-68
2022/01/14 10:47:49;;;;;;;;;;;7.40;99.90;;;;;;6157460;23;19900;-71
2022/01/14 10:50:15;;;;;;;;;;;7.40;99.90;;;;;;6157984;23;20252;-72
2022/01/14 10:52:40;;;;;;;;;;;7.50;99.90;;;;;;6157393;23;19946;-71
2022/01/14 10:55:06;;;;;;;;;;;7.50;99.90;;;;;;6158250;23;19908;-68
2022/01/14 10:57:32;;;;;;;;;;;7.50;99.90;;;;;;6158006;23;20172;-71
2022/01/14 11:00:22;;;;;;;;;;;7.50;99.90;;;;;;6158729;23;19897;-71
2022/01/14 11:02:52;;;;;;;;;;;7.50;99.90;;;;;;6157651;23;19904;-69
2022/01/14 11:05:19;;;;;;;;;;;7.60;99.90;;;;;;6159991;23;19900;-69
2022/01/14 11:07:46;;;;;;;;;;;7.60;99.90;;;;;;6156964;23;19900;-70
2022/01/14 11:10:20;;;;;;;;;;;7.60;99.90;;;;;;6157448;23;19948;-69
2022/01/14 11:12:47;;;;;;;;;;;7.70;99.90;;;;;;6157394;23;20136;-69
2022/01/14 11:15:13;;;;;;;;;;;7.70;99.90;;;;;;6157669;23;20111;-71
2022/01/14 11:17:40;;;;;;;;;;;7.80;99.90;;;;;;6158419;23;19975;-69
2022/01/14 11:20:07;;;;;;;;;;;7.90;99.90;;;;;;6157510;23;20230;-71
2022/01/14 11:25:17;;;;;;;;;;;7.90;99.90;;;;;;6159447;23;19904;-70
2022/01/14 11:27:47;;;;;;;;;;;7.90;99.90;;;;;;6158766;23;19896;-70
2022/01/14 11:30:13;;;;;;;;;;;8.00;99.90;;;;;;6158987;23;19897;-70
2022/01/14 11:33:11;;;;;;;;;;;8.00;99.90;;;;;;6158609;23;19911;-69
2022/01/14 11:35:37;;;;;;;;;;;8.00;99.90;;;;;;6094054;23;19896;-69
2022/01/14 11:38:23;;;;;;;;;;;8.00;99.90;;;;;;6159160;23;19963;-69
2022/01/14 11:40:49;;;;;;;;;;;8.00;99.90;;;;;;6157992;23;20085;-67
2022/01/14 11:43:34;;;;;;;;;;;8.00;99.90;;;;;;6159236;23;19976;-68
2022/01/14 11:45:59;;;;;;;;;;;8.10;99.90;;;;;;6158988;23;19903;-73
2022/01/14 11:48:33;;;;;;;;;;;8.10;99.90;;;;;;6158562;23;19896;-68
2022/01/14 11:51:03;;;;;;;;;;;8.20;99.90;;;;;;6157629;23;19905;-76
2022/01/14 11:53:36;;;;;;;;;;;8.20;99.90;;;;;;6159870;23;19897;-71
2022/01/14 11:56:02;;;;;;;;;;;8.20;99.90;;;;;;6157711;23;19896;-71
2022/01/14 11:58:28;;;;;;;;;;;8.30;99.90;;;;;;6158797;23;20228;-72
2022/01/14 12:00:54;;;;;;;;;;;8.30;99.90;;;;;;6157941;23;19896;-73
2022/01/14 12:03:25;;;;;;;;;;;8.30;99.90;;;;;;6160077;23;20116;-73
2022/01/14 12:06:07;;;;;;;;;;;8.30;99.90;;;;;;6157547;23;20124;-73
2022/01/14 12:08:34;;;;;;;;;;;8.30;99.90;;;;;;6158622;23;20067;-73
2022/01/14 12:11:05;;;;;;;;;;;8.30;99.90;;;;;;6158452;23;20000;-72
2022/01/14 12:16:04;;;;;;;;;;;8.30;99.90;;;;;;6161296;23;19996;-71
2022/01/14 12:18:49;;;;;;;;;;;8.30;99.90;;;;;;6160043;23;20091;-71
2022/01/14 12:21:15;;;;;;;;;;;8.40;99.90;;;;;;6159771;23;19915;-70
2022/01/14 12:23:41;;;;;;;;;;;8.40;99.90;;;;;;6159170;23;19940;-71
2022/01/14 12:26:14;;;;;;;;;;;8.40;99.90;;;;;;6160063;23;19920;-70
2022/01/14 12:28:40;;;;;;;;;;;8.50;99.90;;;;;;6158993;23;19961;-70
2022/01/14 12:31:06;;;;;;;;;;;8.50;99.90;;;;;;6160147;23;19904;-71
2022/01/14 12:33:40;;;;;;;;;;;8.50;99.90;;;;;;6162069;23;19940;-71
2022/01/14 12:36:23;;;;;;;;;;;8.50;99.90;;;;;;6161245;23;19935;-70
2022/01/14 12:38:49;;;;;;;;;;;8.60;99.90;;;;;;6159081;23;19896;-71
2022/01/14 12:41:19;;;;;;;;;;;8.50;99.90;;;;;;6162294;23;19897;-72
2022/01/14 12:43:48;;;;;;;;;;;8.60;99.90;;;;;;6161303;23;19903;-78
2022/01/14 12:46:35;;;;;;;;;;;8.60;99.90;;;;;;6161239;23;19947;-69
2022/01/14 12:49:20;;;;;;;;;;;8.50;99.90;;;;;;6159867;23;19912;-71
2022/01/14 12:51:46;;;;;;;;;;;8.70;99.90;;;;;;6158900;23;19905;-71
2022/01/14 12:54:12;;;;;;;;;;;8.70;99.90;;;;;;6160949;23;19904;-70
2022/01/14 12:56:39;;;;;;;;;;;8.80;99.90;;;;;;6160077;23;20282;-71
2022/01/14 12:59:06;;;;;;;;;;;8.90;99.90;;;;;;6159859;23;19930;-72
2022/01/14 13:01:39;;;;;;;;;;;9.10;99.90;;;;;;6161021;23;19920;-70
2022/01/14 13:04:10;;;;;;;;;;;9.10;99.90;;;;;;6160172;23;19903;-71
2022/01/14 13:06:46;;;;;;;;;;;9.20;99.90;;;;;;6160292;23;19988;-70
2022/01/14 13:09:12;;;;;;;;;;;9.20;99.90;;;;;;6159969;23;20047;-71
2022/01/14 13:11:49;;;;;;;;;;;9.20;99.90;;;;;;6159513;23;20092;-70
2022/01/14 13:14:18;;;;;;;;;;;9.20;99.90;;;;;;6159832;23;20198;-71
2022/01/14 13:16:43;;;;;;;;;;;9.20;99.90;;;;;;6160926;23;19948;-72
2022/01/14 13:19:19;;;;;;;;;;;9.20;99.90;;;;;;6158320;23;20095;-71
2022/01/14 13:21:45;;;;;;;;;;;9.20;99.90;;;;;;6105219;23;19952;-72
2022/01/14 13:24:29;;;;;;;;;;;9.20;99.90;;;;;;6131831;23;19896;-73
2022/01/14 13:27:01;;;;;;;;;;;9.20;99.90;;;;;;6105016;23;20087;-72
2022/01/14 13:29:27;;;;;;;;;;;9.20;99.90;;;;;;6105474;23;19897;-71
2022/01/14 13:31:53;;;;;;;;;;;9.20;99.90;;;;;;6130599;23;19905;-74
2022/01/14 13:34:19;;;;;;;;;;;9.10;99.90;;;;;;6131456;23;19897;-70
2022/01/14 13:36:45;;;;;;;;;;;9.20;99.90;;;;;;6105285;23;20176;-70
2022/01/14 13:39:11;;;;;;;;;;;9.10;99.90;;;;;;6105806;23;19940;-70
2022/01/14 13:41:40;;;;;;;;;;;9.10;99.90;;;;;;6105904;23;19897;-70
2022/01/14 13:44:14;;;;;;;;;;;9.10;99.90;;;;;;6131344;23;19897;-70
2022/01/14 13:46:45;;;;;;;;;;;9.10;99.90;;;;;;6105111;23;19897;-69
2022/01/14 13:49:12;;;;;;;;;;;9.00;99.90;;;;;;6131238;23;19975;-71
2022/01/14 13:51:38;;;;;;;;;;;9.00;99.90;;;;;;6131656;23;20050;-69
2022/01/14 13:54:04;;;;;;;;;;;8.90;99.90;;;;;;6131068;23;19919;-70
2022/01/14 13:56:29;;;;;;;;;;;8.90;99.90;;;;;;6131556;23;20172;-70
2022/01/14 13:58:58;;;;;;;;;;;8.90;99.90;;;;;;6105038;23;20176;-70
2022/01/14 14:01:24;;;;;;;;;;;8.80;99.90;;;;;;6105701;23;19939;-69
2022/01/14 14:03:56;;;;;;;;;;;8.90;99.90;;;;;;6104776;23;20200;-71
2022/01/14 14:06:36;;;;;;;;;;;8.90;99.90;;;;;;6130779;23;19920;-68
2022/01/14 14:12:11;;;;;;;;;;;8.80;99.90;;;;;;6130463;23;19908;-69
2022/01/14 14:17:21;;;;;;;;;;;8.80;99.90;;;;;;6130923;23;19979;-68
2022/01/14 14:19:58;;;;;;;;;;;8.80;99.90;;;;;;6130235;23;20348;-68
2022/01/14 14:22:27;;;;;;;;;;;8.80;99.90;;;;;;6105353;23;19943;-69
2022/01/14 14:24:54;;;;;;;;;;;8.70;99.90;;;;;;6130746;23;19904;-68
2022/01/14 14:27:19;;;;;;;;;;;8.70;99.90;;;;;;6106007;23;20172;-68
2022/01/14 14:29:46;;;;;;;;;;;8.60;99.90;;;;;;6108157;23;19976;-69
